createdAt,value
2018-06-03T00:00:36.175Z,22.00
2018-06-03T00:03:04.543Z,21.90
2018-06-03T00:05:32.103Z,21.90
2018-06-03T00:07:59.624Z,22.00
2018-06-03T00:10:27.240Z,22.00
2018-06-03T00:12:55.524Z,21.80
2018-06-03T00:15:23.098Z,21.90
2018-06-03T00:17:50.673Z,21.80
2018-06-03T00:20:30.019Z,21.80
2018-06-03T00:22:57.572Z,21.70
2018-06-03T00:25:25.103Z,21.50
2018-06-03T00:27:52.648Z,21.50
2018-06-03T00:30:20.967Z,21.50
2018-06-03T00:32:48.548Z,21.50
2018-06-03T00:35:16.072Z,21.60
2018-06-03T00:37:43.640Z,21.50
2018-06-03T00:40:11.164Z,21.40
2018-06-03T00:42:39.504Z,21.30
2018-06-03T00:45:07.040Z,21.30
2018-06-03T00:47:34.597Z,21.30
2018-06-03T00:50:02.148Z,21.30
2018-06-03T00:52:29.690Z,21.20
2018-06-03T00:54:58.020Z,21.20
2018-06-03T00:57:25.601Z,21.10
2018-06-03T00:59:53.140Z,21.10
2018-06-03T01:02:20.683Z,21.10
2018-06-03T01:04:48.247Z,21.10
2018-06-03T01:07:15.804Z,21.10
2018-06-03T01:09:43.354Z,21.10
2018-06-03T01:12:10.882Z,21.00
2018-06-03T01:14:39.200Z,21.00
2018-06-03T01:17:06.754Z,21.00
2018-06-03T01:19:34.288Z,21.10
2018-06-03T01:22:01.903Z,21.10
2018-06-03T01:24:29.427Z,21.10
2018-06-03T01:26:57.005Z,21.00
2018-06-03T01:29:24.583Z,21.00
2018-06-03T01:31:52.141Z,21.00
2018-06-03T01:34:19.668Z,21.00
2018-06-03T01:36:47.233Z,21.00
2018-06-03T01:39:14.827Z,21.00
2018-06-03T01:41:42.356Z,20.90
2018-06-03T01:44:09.929Z,20.90
2018-06-03T01:46:37.469Z,20.90
2018-06-03T01:49:05.044Z,20.90
2018-06-03T01:51:32.604Z,20.90
2018-06-03T01:54:00.132Z,20.90
2018-06-03T01:56:27.711Z,21.00
2018-06-03T01:58:55.245Z,21.10
2018-06-03T02:01:22.769Z,21.10
2018-06-03T02:03:50.328Z,21.20
2018-06-03T02:06:17.860Z,21.20
2018-06-03T02:08:45.438Z,21.00
2018-06-03T02:11:12.977Z,20.90
2018-06-03T02:13:40.725Z,20.90
2018-06-03T02:16:08.260Z,20.80
2018-06-03T02:18:35.829Z,20.70
2018-06-03T02:21:03.360Z,20.60
2018-06-03T02:23:31.684Z,20.50
2018-06-03T02:25:59.262Z,20.50
2018-06-03T02:28:26.813Z,20.50
2018-06-03T02:30:54.339Z,20.50
2018-06-03T02:33:21.896Z,20.40
2018-06-03T02:35:50.200Z,20.30
2018-06-03T02:38:17.745Z,20.30
2018-06-03T02:40:45.291Z,20.30
2018-06-03T02:43:12.828Z,20.20
2018-06-03T02:45:40.405Z,20.30
2018-06-03T02:48:08.751Z,20.40
2018-06-03T02:50:36.292Z,20.40
2018-06-03T02:53:03.920Z,20.40
2018-06-03T02:55:31.484Z,20.40
2018-06-03T02:57:59.003Z,20.40
2018-06-03T03:00:26.585Z,20.40
2018-06-03T03:02:54.874Z,20.20
2018-06-03T03:05:22.471Z,20.20
2018-06-03T03:07:50.032Z,20.10
2018-06-03T03:10:17.588Z,20.20
2018-06-03T03:12:45.111Z,20.20
2018-06-03T03:15:12.671Z,20.10
2018-06-03T03:17:40.231Z,20.00
2018-06-03T03:20:07.848Z,20.00
2018-06-03T03:22:35.410Z,20.00
2018-06-03T03:25:02.969Z,19.90
2018-06-03T03:27:30.581Z,19.90
2018-06-03T03:29:58.111Z,19.80
2018-06-03T03:32:25.661Z,19.90
2018-06-03T03:34:53.198Z,19.80
2018-06-03T03:37:20.774Z,19.80
2018-06-03T03:39:48.352Z,19.70
2018-06-03T03:42:15.889Z,19.60
2018-06-03T03:44:43.473Z,19.70
2018-06-03T03:47:11.053Z,19.60
2018-06-03T03:49:38.616Z,19.60
2018-06-03T03:52:06.185Z,19.60
2018-06-03T03:54:33.744Z,19.60
2018-06-03T03:57:01.264Z,19.70
2018-06-03T03:59:29.597Z,19.60
2018-06-03T04:01:57.171Z,19.60
2018-06-03T04:04:24.705Z,19.70
2018-06-03T04:06:52.295Z,19.60
2018-06-03T04:09:19.855Z,19.60
2018-06-03T04:11:47.368Z,19.60
2018-06-03T04:15:00.411Z,19.60
2018-06-03T04:17:28.995Z,19.50
2018-06-03T04:19:57.579Z,19.60
2018-06-03T04:22:26.115Z,19.60
2018-06-03T04:24:54.694Z,19.60
2018-06-03T04:27:23.226Z,19.50
2018-06-03T04:29:51.725Z,19.60
2018-06-03T04:32:20.272Z,19.60
2018-06-03T04:34:48.739Z,19.60
2018-06-03T04:37:17.292Z,19.70
2018-06-03T04:39:45.934Z,19.70
2018-06-03T04:42:14.464Z,19.80
2018-06-03T04:44:43.044Z,19.80
2018-06-03T04:47:11.536Z,19.80
2018-06-03T04:49:40.125Z,19.70
2018-06-03T04:52:08.669Z,19.70
2018-06-03T04:54:37.182Z,19.80
2018-06-03T04:57:05.760Z,19.80
2018-06-03T04:59:34.362Z,19.80
2018-06-03T05:02:02.895Z,19.80
2018-06-03T05:04:31.402Z,19.80
2018-06-03T05:06:59.963Z,19.90
2018-06-03T05:09:28.608Z,19.90
2018-06-03T05:11:57.113Z,19.90
2018-06-03T05:14:25.756Z,20.10
2018-06-03T05:16:54.289Z,20.10
2018-06-03T05:19:22.934Z,20.10
2018-06-03T05:21:51.474Z,20.20
2018-06-03T05:24:20.056Z,20.20
2018-06-03T05:26:48.674Z,20.20
2018-06-03T05:31:46.263Z,20.40
2018-06-03T05:34:14.800Z,20.50
2018-06-03T05:36:43.354Z,20.60
2018-06-03T05:39:11.874Z,20.50
2018-06-03T05:41:40.398Z,20.60
2018-06-03T05:44:08.872Z,20.70
2018-06-03T05:46:37.401Z,20.70
2018-06-03T05:49:06.083Z,20.80
2018-06-03T05:51:50.249Z,21.00
2018-06-03T05:54:18.734Z,21.00
2018-06-03T05:56:47.296Z,21.10
2018-06-03T05:59:15.920Z,21.10
2018-06-03T06:01:44.701Z,21.30
2018-06-03T06:04:13.240Z,21.40
2018-06-03T06:06:41.796Z,21.50
2018-06-03T06:11:38.607Z,21.60
2018-06-03T06:14:07.147Z,21.50
2018-06-03T06:16:35.698Z,21.50
2018-06-03T06:19:04.349Z,21.60
2018-06-03T06:21:32.911Z,21.80
2018-06-03T06:24:01.431Z,21.90
2018-06-03T06:26:29.980Z,22.20
2018-06-03T06:28:58.590Z,22.20
2018-06-03T06:31:27.084Z,22.30
2018-06-03T06:33:55.600Z,22.30
2018-06-03T06:36:24.171Z,22.40
2018-06-03T06:38:53.088Z,22.50
2018-06-03T06:41:21.590Z,22.50
2018-06-03T06:43:50.143Z,22.60
2018-06-03T06:46:18.699Z,22.70
2018-06-03T06:48:47.276Z,22.80
2018-06-03T06:51:15.799Z,23.00
2018-06-03T06:53:44.325Z,23.00
2018-06-03T06:56:12.886Z,23.10
2018-06-03T06:58:41.423Z,23.10
2018-06-03T07:01:09.927Z,23.10
2018-06-03T07:03:38.413Z,23.20
2018-06-03T07:06:06.955Z,23.30
2018-06-03T07:08:35.478Z,23.50
2018-06-03T07:11:04.077Z,23.70
2018-06-03T07:13:32.565Z,23.80
2018-06-03T07:16:01.078Z,23.80
2018-06-03T07:18:29.636Z,23.90
2018-06-03T07:20:58.300Z,23.90
2018-06-03T07:23:26.928Z,24.00
2018-06-03T07:25:55.584Z,24.10
2018-06-03T07:28:24.158Z,24.20
2018-06-03T07:30:52.785Z,24.30
2018-06-03T07:33:21.384Z,24.50
2018-06-03T07:35:50.029Z,24.70
2018-06-03T07:38:18.659Z,24.90
2018-06-03T07:40:47.204Z,25.00
2018-06-03T07:43:15.810Z,25.20
2018-06-03T07:45:44.427Z,25.30
2018-06-03T07:48:13.191Z,25.50
2018-06-03T07:50:42.074Z,25.60
2018-06-03T07:53:10.755Z,25.70
2018-06-03T07:55:39.260Z,25.80
2018-06-03T07:58:07.739Z,25.90
2018-06-03T08:00:36.440Z,26.10
2018-06-03T08:03:05.200Z,26.10
2018-06-03T08:05:33.789Z,26.20
2018-06-03T08:08:02.375Z,26.20
2018-06-03T08:10:31.000Z,26.30
2018-06-03T08:13:01.445Z,26.40
2018-06-03T08:15:30.124Z,26.40
2018-06-03T08:17:59.737Z,26.50
2018-06-03T08:20:28.445Z,26.50
2018-06-03T08:22:57.018Z,26.50
2018-06-03T08:25:25.548Z,26.60
2018-06-03T08:27:54.116Z,26.60
2018-06-03T08:30:22.663Z,26.60
2018-06-03T08:32:51.304Z,26.60
2018-06-03T08:35:19.848Z,26.70
2018-06-03T08:37:48.402Z,26.70
2018-06-03T08:40:16.971Z,26.70
2018-06-03T08:45:13.822Z,26.70
2018-06-03T08:47:42.345Z,26.70
2018-06-03T08:50:10.944Z,26.80
2018-06-03T08:52:39.562Z,26.70
2018-06-03T08:55:08.044Z,26.70
2018-06-03T08:57:36.655Z,26.70
2018-06-03T09:00:05.519Z,26.60
2018-06-03T09:02:34.104Z,26.70
2018-06-03T09:05:02.778Z,26.70
2018-06-03T09:07:31.314Z,26.80
2018-06-03T09:09:59.916Z,26.90
2018-06-03T09:12:28.593Z,26.90
2018-06-03T09:14:57.232Z,26.80
2018-06-03T09:17:25.884Z,26.80
2018-06-03T09:19:54.661Z,26.80
2018-06-03T09:22:23.272Z,26.70
2018-06-03T09:24:51.814Z,26.60
2018-06-03T09:27:20.514Z,26.40
2018-06-03T09:29:49.047Z,26.30
2018-06-03T09:32:17.624Z,26.30
2018-06-03T09:34:46.132Z,26.20
2018-06-03T09:37:14.645Z,26.20
2018-06-03T09:39:43.171Z,26.20
2018-06-03T09:42:11.904Z,26.30
2018-06-03T09:44:40.460Z,26.20
2018-06-03T09:47:09.033Z,26.20
2018-06-03T09:49:37.557Z,26.20
2018-06-03T09:52:06.088Z,26.10
2018-06-03T09:54:34.661Z,26.10
2018-06-03T09:57:03.255Z,26.10
2018-06-03T09:59:31.754Z,26.10
2018-06-03T10:02:00.370Z,26.20
2018-06-03T10:04:28.955Z,26.10
2018-06-03T10:06:57.499Z,26.10
2018-06-03T10:09:25.980Z,26.10
2018-06-03T10:11:54.650Z,26.10
2018-06-03T10:14:23.115Z,26.10
2018-06-03T10:16:51.669Z,26.10
2018-06-03T10:19:20.167Z,26.10
2018-06-03T10:21:48.732Z,26.20
2018-06-03T10:24:17.350Z,26.20
2018-06-03T10:26:45.860Z,26.20
2018-06-03T10:31:42.573Z,26.20
2018-06-03T10:34:11.184Z,26.20
2018-06-03T10:36:39.683Z,26.10
2018-06-03T10:39:08.373Z,26.10
2018-06-03T10:41:36.895Z,26.20
2018-06-03T10:44:05.531Z,26.10
2018-06-03T10:46:34.124Z,26.10
2018-06-03T10:49:02.660Z,26.10
2018-06-03T10:51:31.196Z,26.20
2018-06-03T10:56:27.923Z,26.20
2018-06-03T10:58:56.433Z,26.20
2018-06-03T11:01:25.004Z,26.10
2018-06-03T11:03:53.545Z,26.10
2018-06-03T11:06:22.132Z,26.10
2018-06-03T11:08:50.767Z,26.00
2018-06-03T11:11:19.513Z,26.10
2018-06-03T11:13:48.055Z,26.10
2018-06-03T11:16:16.698Z,26.20
2018-06-03T11:18:45.222Z,26.20
2018-06-03T11:21:13.696Z,26.30
2018-06-03T11:23:42.212Z,26.40
2018-06-03T11:26:10.786Z,26.40
2018-06-03T11:28:39.310Z,26.50
2018-06-03T11:31:07.866Z,26.60
2018-06-03T11:33:36.420Z,26.60
2018-06-03T11:36:04.944Z,26.60
2018-06-03T11:38:33.414Z,26.70
2018-06-03T11:41:01.968Z,26.60
2018-06-03T11:43:30.476Z,26.70
2018-06-03T11:45:59.179Z,26.70
2018-06-03T11:48:27.747Z,26.60
2018-06-03T11:50:56.309Z,26.60
2018-06-03T11:53:24.780Z,26.70
2018-06-03T11:55:53.292Z,26.70
2018-06-03T11:58:42.203Z,26.70
2018-06-03T12:01:10.948Z,26.70
2018-06-03T12:03:39.457Z,26.70
2018-06-03T12:06:07.975Z,26.70
2018-06-03T12:08:36.490Z,26.60
2018-06-03T12:11:05.005Z,26.70
2018-06-03T12:13:33.511Z,26.70
2018-06-03T12:16:02.038Z,26.60
2018-06-03T12:18:30.659Z,26.60
2018-06-03T12:20:59.243Z,26.70
2018-06-03T12:23:27.876Z,26.70
2018-06-03T12:25:56.364Z,26.70
2018-06-03T12:28:24.879Z,26.70
2018-06-03T12:30:53.470Z,26.80
2018-06-03T12:33:22.008Z,26.80
2018-06-03T12:35:50.538Z,26.80
2018-06-03T12:38:19.015Z,26.80
2018-06-03T12:40:47.653Z,26.70
2018-06-03T12:43:16.159Z,26.60
2018-06-03T12:45:44.797Z,26.70
2018-06-03T12:48:13.299Z,26.70
2018-06-03T12:50:41.811Z,26.70
2018-06-03T12:53:10.373Z,26.70
2018-06-03T12:55:38.944Z,26.70
2018-06-03T12:58:07.488Z,26.80
2018-06-03T13:00:36.058Z,26.90
2018-06-03T13:03:04.786Z,26.90
2018-06-03T13:05:33.416Z,26.90
2018-06-03T13:08:01.927Z,26.90
2018-06-03T13:10:30.408Z,26.90
2018-06-03T13:12:58.988Z,26.90
2018-06-03T13:15:27.601Z,26.80
2018-06-03T13:17:56.551Z,26.80
2018-06-03T13:22:53.407Z,26.90
2018-06-03T13:25:22.242Z,26.80
2018-06-03T13:27:50.868Z,26.80
2018-06-03T13:30:19.414Z,26.70
2018-06-03T13:32:47.976Z,26.70
2018-06-03T13:35:16.492Z,26.70
2018-06-03T13:37:45.166Z,26.80
2018-06-03T13:40:13.856Z,26.80
2018-06-03T13:42:42.359Z,26.90
2018-06-03T13:45:10.891Z,26.50
2018-06-03T13:50:07.807Z,26.90
2018-06-03T13:52:36.315Z,26.80
2018-06-03T13:55:04.914Z,26.90
2018-06-03T13:57:33.533Z,26.90
2018-06-03T14:00:02.199Z,26.90
2018-06-03T14:02:30.872Z,26.90
2018-06-03T14:04:59.404Z,26.90
2018-06-03T14:07:28.194Z,26.90
2018-06-03T14:09:56.903Z,26.90
2018-06-03T14:12:25.447Z,26.90
2018-06-03T14:14:54.055Z,26.80
2018-06-03T14:17:22.695Z,26.90
2018-06-03T14:19:51.335Z,26.90
2018-06-03T14:22:19.859Z,26.90
2018-06-03T14:24:48.500Z,26.80
2018-06-03T14:27:17.035Z,26.80
2018-06-03T14:32:13.917Z,26.80
2018-06-03T14:34:42.466Z,26.80
2018-06-03T14:37:11.060Z,26.80
2018-06-03T14:39:39.652Z,26.90
2018-06-03T14:42:08.167Z,26.90
2018-06-03T14:44:36.725Z,27.00
2018-06-03T14:47:05.301Z,27.10
2018-06-03T14:49:34.497Z,27.10
2018-06-03T14:52:03.107Z,27.10
2018-06-03T14:54:31.797Z,27.00
2018-06-03T14:57:00.410Z,27.10
2018-06-03T14:59:28.925Z,27.20
2018-06-03T15:01:57.521Z,27.20
2018-06-03T15:04:26.001Z,27.20
2018-06-03T15:06:54.571Z,27.10
2018-06-03T15:09:23.194Z,27.10
2018-06-03T15:11:51.908Z,27.10
2018-06-03T15:14:20.464Z,27.20
2018-06-03T15:16:48.959Z,27.20
2018-06-03T15:19:17.563Z,27.20
2018-06-03T15:21:46.208Z,27.20
2018-06-03T15:24:14.949Z,27.30
2018-06-03T15:29:11.941Z,27.20
2018-06-03T15:31:40.564Z,27.20
2018-06-03T15:34:09.105Z,27.20
2018-06-03T15:36:37.736Z,27.30
2018-06-03T15:39:08.140Z,27.30
2018-06-03T15:41:36.980Z,27.30
2018-06-03T15:44:05.636Z,27.30
2018-06-03T15:46:34.183Z,27.30
2018-06-03T15:49:02.749Z,27.30
2018-06-03T15:51:31.345Z,27.30
2018-06-03T15:53:59.957Z,27.20
2018-06-03T15:56:28.524Z,27.20
2018-06-03T15:58:57.059Z,27.20
2018-06-03T16:01:25.697Z,27.20
2018-06-03T16:03:54.235Z,27.30
2018-06-03T16:06:22.813Z,27.30
2018-06-03T16:08:51.355Z,27.30
2018-06-03T16:12:22.608Z,27.30
2018-06-03T16:14:51.180Z,27.20
2018-06-03T16:17:20.567Z,27.00
2018-06-03T16:19:49.117Z,27.00
2018-06-03T16:22:17.775Z,27.00
2018-06-03T16:24:46.255Z,27.00
2018-06-03T16:27:14.839Z,26.90
2018-06-03T16:29:43.499Z,26.90
2018-06-03T16:32:12.040Z,26.90
2018-06-03T16:34:40.695Z,26.90
2018-06-03T16:37:09.263Z,26.90
2018-06-03T16:39:37.811Z,26.90
2018-06-03T16:42:06.559Z,26.90
2018-06-03T16:44:35.062Z,26.80
2018-06-03T16:47:03.623Z,26.70
2018-06-03T16:49:32.171Z,26.70
2018-06-03T16:52:00.926Z,26.70
2018-06-03T16:54:29.497Z,26.70
2018-06-03T16:56:58.065Z,26.60
2018-06-03T16:59:26.835Z,26.70
2018-06-03T17:01:56.442Z,26.70
2018-06-03T17:04:25.019Z,26.70
2018-06-03T17:06:53.738Z,26.70
2018-06-03T17:09:22.269Z,26.70
2018-06-03T17:11:50.980Z,26.70
2018-06-03T17:14:19.744Z,26.70
2018-06-03T17:16:48.342Z,26.70
2018-06-03T17:19:16.913Z,26.70
2018-06-03T17:21:45.623Z,26.70
2018-06-03T17:24:14.189Z,26.70
2018-06-03T17:26:42.733Z,26.70
2018-06-03T17:29:11.300Z,26.60
2018-06-03T17:31:39.907Z,26.60
2018-06-03T17:34:08.542Z,26.60
2018-06-03T17:36:37.157Z,26.70
2018-06-03T17:39:07.843Z,26.70
2018-06-03T17:41:36.887Z,26.70
2018-06-03T17:44:05.569Z,26.70
2018-06-03T17:46:34.277Z,26.70
2018-06-03T17:51:31.026Z,26.70
2018-06-03T17:53:59.658Z,26.60
2018-06-03T17:56:28.330Z,26.60
2018-06-03T17:58:56.923Z,26.60
2018-06-03T18:01:25.579Z,26.60
2018-06-03T18:03:54.304Z,26.50
2018-06-03T18:06:22.932Z,26.50
2018-06-03T18:08:51.461Z,26.50
2018-06-03T18:11:20.123Z,26.40
2018-06-03T18:13:48.932Z,26.40
2018-06-03T18:16:17.573Z,26.40
2018-06-03T18:18:46.188Z,26.40
2018-06-03T18:21:14.880Z,26.30
2018-06-03T18:23:43.404Z,26.30
2018-06-03T18:26:12.128Z,26.20
2018-06-03T18:28:40.774Z,26.20
2018-06-03T18:31:09.322Z,26.20
2018-06-03T18:33:37.855Z,24.80
2018-06-03T18:36:06.492Z,26.10
2018-06-03T18:38:35.112Z,26.10
2018-06-03T18:41:03.964Z,26.00
2018-06-03T18:43:32.501Z,26.00
2018-06-03T18:46:01.132Z,26.00
2018-06-03T18:48:29.914Z,25.90
2018-06-03T18:50:58.507Z,25.90
2018-06-03T18:53:27.073Z,25.90
2018-06-03T18:55:55.685Z,25.80
2018-06-03T18:58:24.448Z,25.80
2018-06-03T19:00:53.220Z,25.80
2018-06-03T19:03:21.763Z,25.80
2018-06-03T19:05:50.297Z,25.70
2018-06-03T19:08:18.934Z,25.70
2018-06-03T19:10:47.598Z,25.70
2018-06-03T19:13:16.195Z,25.70
2018-06-03T19:15:44.857Z,25.70
2018-06-03T19:18:13.455Z,25.60
2018-06-03T19:20:42.739Z,25.60
2018-06-03T19:23:11.332Z,25.60
2018-06-03T19:25:39.908Z,25.50
2018-06-03T19:28:08.478Z,25.50
2018-06-03T19:30:37.012Z,25.50
2018-06-03T19:33:05.824Z,25.50
2018-06-03T19:35:34.365Z,25.50
2018-06-03T19:38:03.011Z,25.40
2018-06-03T19:40:32.004Z,25.40
2018-06-03T19:43:00.533Z,25.30
2018-06-03T19:45:29.172Z,25.20
2018-06-03T19:47:58.028Z,25.10
2018-06-03T19:50:26.714Z,25.10
2018-06-03T19:52:55.409Z,25.00
2018-06-03T19:55:24.227Z,25.00
2018-06-03T19:57:52.770Z,25.10
2018-06-03T20:00:21.376Z,25.10
2018-06-03T20:02:50.049Z,25.00
2018-06-03T20:05:18.664Z,25.10
2018-06-03T20:07:47.235Z,25.00
2018-06-03T20:12:44.325Z,25.00
2018-06-03T20:15:13.061Z,24.80
2018-06-03T20:17:41.996Z,24.80
2018-06-03T20:20:10.565Z,24.80
2018-06-03T20:22:39.193Z,24.80
2018-06-03T20:25:07.736Z,24.70
2018-06-03T20:27:36.272Z,24.70
2018-06-03T20:30:04.889Z,24.70
2018-06-03T20:32:33.502Z,24.60
2018-06-03T20:35:02.080Z,24.60
2018-06-03T20:37:30.847Z,24.60
2018-06-03T20:39:59.445Z,24.60
2018-06-03T20:42:28.033Z,24.40
2018-06-03T20:44:56.594Z,24.40
2018-06-03T20:47:25.141Z,24.30
2018-06-03T20:49:53.691Z,24.30
2018-06-03T20:52:22.309Z,24.30
2018-06-03T20:54:50.884Z,24.20
2018-06-03T20:57:19.413Z,24.20
2018-06-03T20:59:48.042Z,24.20
2018-06-03T21:02:16.683Z,24.10
2018-06-03T21:04:45.236Z,24.10
2018-06-03T21:07:14.135Z,24.10
2018-06-03T21:09:42.627Z,24.00
2018-06-03T21:12:11.296Z,23.90
2018-06-03T21:14:39.786Z,23.80
2018-06-03T21:17:08.381Z,23.80
2018-06-03T21:19:36.947Z,23.80
2018-06-03T21:22:05.662Z,23.70
2018-06-03T21:24:34.228Z,23.60
2018-06-03T21:27:02.770Z,23.60
2018-06-03T21:29:31.319Z,23.60
2018-06-03T21:32:00.024Z,23.50
2018-06-03T21:34:28.561Z,23.50
2018-06-03T21:36:57.101Z,23.40
2018-06-03T21:39:25.668Z,23.40
2018-06-03T21:41:54.337Z,23.40
2018-06-03T21:44:22.932Z,23.40
2018-06-03T21:46:51.571Z,23.40
2018-06-03T21:49:20.091Z,23.30
2018-06-03T21:51:48.642Z,23.20
2018-06-03T21:54:17.130Z,23.30
2018-06-03T21:56:46.084Z,23.20
2018-06-03T21:59:14.977Z,23.20
2018-06-03T22:01:43.880Z,23.10
2018-06-03T22:04:12.411Z,23.10
2018-06-03T22:09:09.120Z,23.00
2018-06-03T22:11:52.246Z,23.00
2018-06-03T22:14:20.872Z,22.90
2018-06-03T22:16:49.397Z,22.80
2018-06-03T22:19:18.306Z,22.80
2018-06-03T22:21:46.875Z,22.90
2018-06-03T22:24:15.394Z,22.80
2018-06-03T22:26:44.011Z,22.80
2018-06-03T22:29:12.513Z,22.70
2018-06-03T22:31:41.081Z,22.60
2018-06-03T22:34:09.677Z,22.60
2018-06-03T22:36:38.183Z,22.60
2018-06-03T22:39:08.492Z,22.70
2018-06-03T22:41:37.076Z,22.60
2018-06-03T22:44:05.572Z,22.60
2018-06-03T22:46:35.132Z,22.50
2018-06-03T22:49:03.685Z,22.40
2018-06-03T22:51:32.278Z,22.40
2018-06-03T22:54:00.844Z,22.30
2018-06-03T22:56:40.580Z,22.40
2018-06-03T22:59:09.089Z,22.30
2018-06-03T23:01:37.575Z,22.20
2018-06-03T23:04:06.106Z,22.20
2018-06-03T23:06:34.627Z,22.20
2018-06-03T23:09:03.929Z,22.20
2018-06-03T23:11:32.761Z,22.10
2018-06-03T23:16:29.615Z,22.10
2018-06-03T23:18:58.180Z,22.10
2018-06-03T23:21:26.899Z,22.00
2018-06-03T23:23:55.448Z,22.00
2018-06-03T23:26:23.939Z,22.10
2018-06-03T23:28:52.514Z,22.10
2018-06-03T23:31:21.077Z,22.00
2018-06-03T23:33:49.591Z,22.00
2018-06-03T23:36:18.118Z,22.00
2018-06-03T23:38:46.656Z,21.90
2018-06-03T23:41:15.138Z,20.40
2018-06-03T23:46:12.060Z,21.80
2018-06-03T23:48:40.640Z,21.80
2018-06-03T23:51:09.179Z,21.80
2018-06-03T23:53:37.728Z,21.80
2018-06-03T23:56:06.247Z,21.80
2018-06-03T23:58:34.776Z,21.80
